createdAt,value
2022-11-04T00:02:24.608Z,14.27
2022-11-04T00:07:45.448Z,14.25
2022-11-04T00:12:47.519Z,14.45
2022-11-04T00:17:49.539Z,13.77
2022-11-04T00:23:23.738Z,14.43
2022-11-04T00:28:44.051Z,14.07
2022-11-04T00:33:47.356Z,14.20
2022-11-04T00:38:49.420Z,14.07
2022-11-04T00:44:03.628Z,14.33
2022-11-04T00:49:05.768Z,14.27
2022-11-04T00:54:07.908Z,13.63
2022-11-04T00:59:13.506Z,14.23
2022-11-04T01:04:16.826Z,13.60
2022-11-04T01:09:18.960Z,13.30
2022-11-04T01:14:21.425Z,15.10
2022-11-04T01:19:23.568Z,15.17
2022-11-04T01:24:25.912Z,15.20
2022-11-04T01:29:27.978Z,15.43
2022-11-04T01:34:30.156Z,14.27
2022-11-04T01:39:32.171Z,14.98
2022-11-04T01:44:47.452Z,15.17
2022-11-04T01:49:57.953Z,14.82
2022-11-04T01:55:06.556Z,15.68
2022-11-04T02:00:09.953Z,15.97
2022-11-04T02:05:11.989Z,16.52
2022-11-04T02:10:14.261Z,16.93
2022-11-04T02:15:45.583Z,16.40
2022-11-04T02:21:12.988Z,16.75
2022-11-04T02:26:52.600Z,16.17
2022-11-04T02:32:08.507Z,18.05
2022-11-04T02:37:20.264Z,16.57
2022-11-04T02:42:29.296Z,15.98
2022-11-04T02:47:32.415Z,15.38
2022-11-04T02:52:39.264Z,15.20
2022-11-04T02:57:44.876Z,15.55
2022-11-04T03:02:50.383Z,15.60
2022-11-04T03:07:56.430Z,15.20
2022-11-04T03:13:05.515Z,15.20
2022-11-04T03:18:19.757Z,16.43
2022-11-04T03:23:21.860Z,17.87
2022-11-04T03:28:30.256Z,18.60
2022-11-04T03:33:50.820Z,16.92
2022-11-04T03:38:53.341Z,16.30
2022-11-04T03:43:55.382Z,16.77
2022-11-04T03:48:59.467Z,18.00
2022-11-04T03:54:01.759Z,17.40
2022-11-04T03:59:19.145Z,16.62
2022-11-04T04:04:59.751Z,17.05
2022-11-04T04:10:28.417Z,16.73
2022-11-04T04:15:56.834Z,17.90
2022-11-04T04:21:04.977Z,16.00
2022-11-04T04:26:28.028Z,16.08
2022-11-04T04:31:50.341Z,17.92
2022-11-04T04:37:03.492Z,18.37
2022-11-04T04:42:24.975Z,17.67
2022-11-04T04:47:32.443Z,16.97
2022-11-04T04:52:40.559Z,18.40
2022-11-04T04:57:43.121Z,19.17
2022-11-04T05:02:45.659Z,18.60
2022-11-04T05:07:48.215Z,19.73
2022-11-04T05:13:08.655Z,19.23
2022-11-04T05:18:11.080Z,20.40
2022-11-04T05:23:14.746Z,19.30
2022-11-04T05:28:16.776Z,18.67
2022-11-04T05:33:18.951Z,20.35
2022-11-04T05:38:20.969Z,18.80
2022-11-04T05:43:23.022Z,19.25
2022-11-04T05:48:25.131Z,20.42
2022-11-04T05:58:34.558Z,21.95
2022-11-04T06:03:36.565Z,18.43
2022-11-04T06:08:43.992Z,19.05
2022-11-04T06:13:47.205Z,19.48
2022-11-04T06:18:49.372Z,20.33
2022-11-04T06:23:52.875Z,20.00
2022-11-04T06:28:55.339Z,19.57
2022-11-04T06:33:57.400Z,20.37
2022-11-04T06:39:04.390Z,19.25
2022-11-04T06:44:07.127Z,19.20
2022-11-04T06:49:20.509Z,20.95
2022-11-04T06:54:22.654Z,20.13
2022-11-04T06:59:24.756Z,19.17
2022-11-04T07:04:26.799Z,18.87
2022-11-04T07:09:28.825Z,20.53
2022-11-04T07:14:31.381Z,18.00
2022-11-04T07:19:33.661Z,18.53
2022-11-04T07:24:35.882Z,19.37
2022-11-04T07:29:37.945Z,19.15
2022-11-04T07:34:39.992Z,19.60
2022-11-04T07:39:43.038Z,20.05
2022-11-04T07:44:45.751Z,19.60
2022-11-04T07:49:47.950Z,19.40
2022-11-04T07:54:50.251Z,18.65
2022-11-04T07:59:52.287Z,23.63
2022-11-04T08:04:54.330Z,21.12
2022-11-04T08:09:56.387Z,18.43
2022-11-04T08:14:59.573Z,19.23
2022-11-04T08:20:01.659Z,18.98
2022-11-04T08:25:04.271Z,19.03
2022-11-04T08:30:07.054Z,19.52
2022-11-04T08:35:09.342Z,19.17
2022-11-04T08:40:11.579Z,21.23
2022-11-04T08:45:13.769Z,19.27
2022-11-04T08:50:15.862Z,18.80
2022-11-04T08:55:17.922Z,20.08
2022-11-04T09:00:21.133Z,20.53
2022-11-04T09:05:23.231Z,21.35
2022-11-04T09:10:25.339Z,21.67
2022-11-04T09:15:27.438Z,21.40
2022-11-04T09:20:29.569Z,21.70
2022-11-04T09:25:33.237Z,21.67
2022-11-04T09:30:35.321Z,21.35
2022-11-04T09:35:37.383Z,22.87
2022-11-04T09:40:39.504Z,21.40
2022-11-04T09:45:43.141Z,21.70
2022-11-04T09:50:52.622Z,21.00
2022-11-04T09:55:57.949Z,21.10
2022-11-04T10:01:13.000Z,21.90
2022-11-04T10:06:35.511Z,23.10
2022-11-04T10:11:43.545Z,23.42
2022-11-04T10:16:57.779Z,23.30
2022-11-04T10:22:04.885Z,23.75
2022-11-04T10:27:17.460Z,24.60
2022-11-04T10:32:29.847Z,25.70
2022-11-04T10:37:31.982Z,23.98
2022-11-04T10:42:34.154Z,24.47
2022-11-04T10:47:57.797Z,24.25
2022-11-04T10:53:20.971Z,24.90
2022-11-04T10:58:30.641Z,24.87
2022-11-04T11:03:34.767Z,25.67
2022-11-04T11:08:40.327Z,25.87
2022-11-04T11:13:46.778Z,25.23
2022-11-04T11:19:11.282Z,24.63
2022-11-04T11:24:21.766Z,24.40
2022-11-04T11:29:31.258Z,26.30
2022-11-04T11:34:38.863Z,26.00
2022-11-04T11:39:43.954Z,25.10
2022-11-04T11:44:50.502Z,25.25
2022-11-04T11:50:06.970Z,25.37
2022-11-04T11:55:27.090Z,25.15
2022-11-04T12:11:27.406Z,25.02
2022-11-04T12:16:43.743Z,25.80
2022-11-04T12:21:45.710Z,27.17
2022-11-04T12:26:58.739Z,25.80
2022-11-04T12:32:23.974Z,25.15
2022-11-04T12:37:28.969Z,26.05
2022-11-04T12:43:13.401Z,26.90
2022-11-04T12:48:59.804Z,26.48
2022-11-04T12:54:32.072Z,26.37
2022-11-04T12:59:57.030Z,25.37
2022-11-04T13:05:23.897Z,26.58
2022-11-04T13:10:48.971Z,26.87
2022-11-04T13:15:58.015Z,29.30
2022-11-04T13:21:02.704Z,26.90
2022-11-04T13:26:10.059Z,26.87
2022-11-04T13:31:14.996Z,26.48
2022-11-04T13:36:36.024Z,27.57
2022-11-04T13:41:51.891Z,27.73
2022-11-04T13:46:58.571Z,26.70
2022-11-04T13:52:02.263Z,28.25
2022-11-04T13:57:16.042Z,27.87
2022-11-04T14:02:21.133Z,25.87
2022-11-04T14:08:01.426Z,27.20
2022-11-04T14:13:33.341Z,26.87
2022-11-04T14:18:43.918Z,26.92
2022-11-04T14:23:57.495Z,27.85
2022-11-04T14:29:08.116Z,27.13
2022-11-04T14:34:27.073Z,28.40
2022-11-04T14:39:40.809Z,26.57
2022-11-04T14:44:45.755Z,26.98
2022-11-04T14:49:59.796Z,25.45
2022-11-04T14:55:11.134Z,24.47
2022-11-04T15:00:48.602Z,25.58
2022-11-04T15:06:02.940Z,24.80
2022-11-04T15:11:11.283Z,25.83
2022-11-04T15:16:25.793Z,26.67
2022-11-04T15:21:27.871Z,27.53
2022-11-04T15:26:32.813Z,26.85
2022-11-04T15:31:36.957Z,27.60
2022-11-04T15:36:41.629Z,28.20
2022-11-04T15:42:03.965Z,27.95
2022-11-04T15:47:18.255Z,26.17
2022-11-04T15:52:26.559Z,26.62
2022-11-04T15:57:38.204Z,26.57
2022-11-04T16:02:52.969Z,26.95
2022-11-04T16:08:13.334Z,25.83
2022-11-04T16:13:18.114Z,26.63
2022-11-04T16:18:39.576Z,28.00
2022-11-04T16:23:48.241Z,28.27
2022-11-04T16:28:54.439Z,26.73
2022-11-04T16:33:56.521Z,27.35
2022-11-04T16:39:02.861Z,27.70
2022-11-04T16:44:14.706Z,27.55
2022-11-04T16:49:19.883Z,27.10
2022-11-04T16:54:22.704Z,25.77
2022-11-04T16:59:24.740Z,27.13
2022-11-04T17:04:26.815Z,28.93
2022-11-04T17:09:28.808Z,30.23
2022-11-04T17:14:33.130Z,28.03
2022-11-04T17:19:35.158Z,28.42
2022-11-04T17:24:40.289Z,30.85
2022-11-04T17:29:42.427Z,30.17
2022-11-04T17:34:44.519Z,29.33
2022-11-04T17:39:46.544Z,27.17
2022-11-04T17:44:48.750Z,27.17
2022-11-04T17:49:50.826Z,28.48
2022-11-04T17:54:52.841Z,28.20
2022-11-04T17:59:54.888Z,26.98
2022-11-04T18:04:57.097Z,28.93
2022-11-04T18:09:59.151Z,26.67
2022-11-04T18:15:01.293Z,28.52
2022-11-04T18:20:06.191Z,28.20
2022-11-04T18:25:11.672Z,28.65
2022-11-04T18:30:16.042Z,29.07
2022-11-04T18:35:18.612Z,29.92
2022-11-04T18:40:20.769Z,27.45
2022-11-04T18:45:23.705Z,27.90
2022-11-04T18:50:25.852Z,27.90
2022-11-04T18:55:27.910Z,28.33
2022-11-04T19:00:31.438Z,25.70
2022-11-04T19:05:33.527Z,26.75
2022-11-04T19:10:57.963Z,27.17
2022-11-04T19:16:11.196Z,26.67
2022-11-04T19:21:13.349Z,28.27
2022-11-04T19:26:18.813Z,27.02
2022-11-04T19:31:24.288Z,28.48
2022-11-04T19:36:26.459Z,28.47
2022-11-04T19:41:47.485Z,28.15
2022-11-04T19:46:49.899Z,27.37
2022-11-04T19:51:52.040Z,27.95
2022-11-04T19:56:54.270Z,28.33
2022-11-04T20:01:56.466Z,27.27
2022-11-04T20:06:58.654Z,27.92
2022-11-04T20:12:19.272Z,26.13
2022-11-04T20:17:21.558Z,26.45
2022-11-04T20:22:23.592Z,27.77
2022-11-04T20:27:25.743Z,26.70
2022-11-04T20:32:28.894Z,27.00
2022-11-04T20:37:30.944Z,25.27
2022-11-04T20:42:33.463Z,26.65
2022-11-04T20:47:36.981Z,27.40
2022-11-04T20:52:39.054Z,27.53
2022-11-04T20:57:41.136Z,26.35
2022-11-04T21:02:43.207Z,26.70
2022-11-04T21:07:45.291Z,27.52
2022-11-04T21:12:47.322Z,26.52
2022-11-04T21:17:49.349Z,26.43
2022-11-04T21:22:51.371Z,28.10
2022-11-04T21:27:53.497Z,28.47
2022-11-04T21:32:55.511Z,26.25
2022-11-04T21:37:57.522Z,28.08
2022-11-04T21:42:59.599Z,27.43
2022-11-04T21:48:02.555Z,27.33
2022-11-04T21:53:04.809Z,29.77
2022-11-04T21:58:06.950Z,35.25
2022-11-04T22:03:10.966Z,36.92
2022-11-04T22:08:19.878Z,40.07
2022-11-04T22:13:23.170Z,40.92
2022-11-04T22:18:29.972Z,35.13
2022-11-04T22:23:34.379Z,36.38
2022-11-04T22:28:36.689Z,31.15
2022-11-04T22:33:39.074Z,28.47
2022-11-04T22:38:42.580Z,25.45
2022-11-04T22:43:44.821Z,20.50
2022-11-04T22:48:47.395Z,16.95
2022-11-04T22:53:56.582Z,15.38
2022-11-04T22:59:00.903Z,13.80
2022-11-04T23:04:03.594Z,13.27
2022-11-04T23:09:05.941Z,13.57
2022-11-04T23:14:30.869Z,13.10
2022-11-04T23:19:33.070Z,11.05
2022-11-04T23:24:53.644Z,8.77
2022-11-04T23:30:14.316Z,8.57
2022-11-04T23:35:35.884Z,8.00
2022-11-04T23:40:39.281Z,6.00
2022-11-04T23:46:00.137Z,6.10
2022-11-04T23:51:21.309Z,5.17
2022-11-04T23:56:42.278Z,5.10
